Terminal Aerodrome Forecast
Issued by NWS

Home | Current Version | Previous Version | Text Only | Print | Product List | Glossary On
Versions: 1 2 3 4 5 6 7 8 9 10 11 12 13 14 15 16 17 18 19
000
FTAK31 PAFA 240022 AAA
TAFAQT
TAF AMD
PAQT 240022Z 2400/2424 22014KT 6SM -SN BR SCT025 OVC060
      TEMPO 2400/2403 5SM -SN BKN025
     FM240300 22012KT 5SM -SN BR BKN035 OVC060
     FM240800 25015KT 5SM -SN BR BKN035=

USA.gov is the U.S. government's official web portal to all federal, state and local government web resources and services.